createdAt,value
2022-12-04T00:00:03.517Z,0.5
2022-12-04T00:01:19.815Z,0.5
2022-12-04T00:02:36.100Z,0.5
2022-12-04T00:03:52.392Z,0.5
2022-12-04T00:05:08.690Z,0.5
2022-12-04T00:06:24.982Z,0.5
2022-12-04T00:07:40.298Z,0.5
2022-12-04T00:08:56.588Z,0.5
2022-12-04T00:10:12.894Z,0.5
2022-12-04T00:11:29.187Z,0.5
2022-12-04T00:12:45.474Z,0.5
2022-12-04T00:14:01.768Z,0.5
2022-12-04T00:15:18.062Z,0.5
2022-12-04T00:16:34.376Z,0.5
2022-12-04T00:17:50.659Z,0.5
2022-12-04T00:19:06.966Z,0.5
2022-12-04T00:20:23.243Z,0.5
2022-12-04T00:21:39.545Z,0.5
2022-12-04T00:22:55.850Z,0.5
2022-12-04T00:24:12.135Z,0.5
2022-12-04T00:25:27.447Z,0.5
2022-12-04T00:26:43.740Z,0.5
2022-12-04T00:28:00.037Z,0.5
2022-12-04T00:29:16.330Z,0.5
2022-12-04T00:30:32.619Z,0.5
2022-12-04T00:31:48.932Z,0.5
2022-12-04T00:33:05.210Z,0.5
2022-12-04T00:34:21.508Z,0.5
2022-12-04T00:35:37.811Z,0.5
2022-12-04T00:36:54.091Z,0.5
2022-12-04T00:38:10.401Z,0.5
2022-12-04T00:39:26.691Z,0.5
2022-12-04T00:40:42.991Z,0.5
2022-12-04T00:41:58.307Z,0.5
2022-12-04T00:43:14.594Z,0.5
2022-12-04T00:44:30.882Z,0.5
2022-12-04T00:45:47.184Z,0.6
2022-12-04T00:47:03.478Z,0.5
2022-12-04T00:49:36.063Z,0.6
2022-12-04T00:50:52.363Z,0.5
2022-12-04T00:52:08.660Z,0.5
2022-12-04T00:53:24.957Z,0.5
2022-12-04T00:54:41.243Z,0.5
2022-12-04T00:55:57.543Z,0.5
2022-12-04T00:57:13.839Z,0.5
2022-12-04T00:58:29.144Z,0.5
2022-12-04T00:59:45.434Z,0.5
2022-12-04T01:01:01.725Z,0.5
2022-12-04T01:02:18.025Z,0.5
2022-12-04T01:03:34.332Z,0.5
2022-12-04T01:04:50.615Z,0.5
2022-12-04T01:06:06.918Z,0.5
2022-12-04T01:07:23.220Z,0.5
2022-12-04T01:08:39.503Z,0.5
2022-12-04T01:09:55.802Z,0.5
2022-12-04T01:11:12.085Z,0.5
2022-12-04T01:12:28.395Z,0.5
2022-12-04T01:13:44.684Z,0.5
2022-12-04T01:15:00.974Z,0.5
2022-12-04T01:16:16.286Z,0.5
2022-12-04T01:17:32.591Z,0.5
2022-12-04T01:18:48.879Z,0.5
2022-12-04T01:20:05.173Z,0.5
2022-12-04T01:21:21.478Z,0.5
2022-12-04T01:22:37.768Z,0.5
2022-12-04T01:23:54.064Z,0.5
2022-12-04T01:25:10.356Z,0.5
2022-12-04T01:27:42.939Z,0.5
2022-12-04T01:28:59.246Z,0.6
2022-12-04T01:30:15.540Z,0.5
2022-12-04T01:31:31.822Z,0.6
2022-12-04T01:32:47.146Z,0.6
2022-12-04T01:34:03.440Z,0.6
2022-12-04T01:35:19.736Z,0.5
2022-12-04T01:36:36.022Z,0.5
2022-12-04T01:37:52.313Z,0.5
2022-12-04T01:40:24.912Z,0.5
2022-12-04T01:41:41.195Z,0.5
2022-12-04T01:42:57.505Z,0.6
2022-12-04T01:44:13.784Z,0.6
2022-12-04T01:45:30.085Z,0.6
2022-12-04T01:46:46.378Z,0.6
2022-12-04T01:48:02.687Z,0.6
2022-12-04T01:49:17.995Z,0.6
2022-12-04T01:50:34.286Z,0.6
2022-12-04T01:51:50.588Z,0.6
2022-12-04T01:53:06.864Z,0.6
2022-12-04T01:54:23.165Z,0.6
2022-12-04T01:55:39.471Z,0.6
2022-12-04T01:56:55.750Z,0.6
2022-12-04T01:58:12.062Z,0.6
2022-12-04T01:59:28.342Z,0.6
2022-12-04T02:00:44.647Z,0.6
2022-12-04T02:02:00.935Z,0.6
2022-12-04T02:03:17.226Z,0.6
2022-12-04T02:05:49.823Z,0.6
2022-12-04T02:07:05.128Z,0.6
2022-12-04T02:08:21.422Z,0.6
2022-12-04T02:09:37.731Z,0.6
2022-12-04T02:10:54.018Z,0.7
2022-12-04T02:12:10.309Z,0.6
2022-12-04T02:13:26.601Z,0.6
2022-12-04T02:14:42.906Z,0.6
2022-12-04T02:15:59.201Z,0.6
2022-12-04T02:17:15.502Z,0.7
2022-12-04T02:18:31.781Z,0.6
2022-12-04T02:19:48.094Z,0.6
2022-12-04T02:22:20.678Z,0.7
2022-12-04T02:23:35.989Z,0.7
2022-12-04T02:24:52.278Z,0.7
2022-12-04T02:26:08.580Z,0.7
2022-12-04T02:27:24.868Z,0.7
2022-12-04T02:28:41.165Z,0.7
2022-12-04T02:31:13.755Z,0.7
2022-12-04T02:32:29.065Z,0.7
2022-12-04T02:33:44.389Z,0.7
2022-12-04T02:35:00.672Z,0.7
2022-12-04T02:36:16.967Z,0.6
2022-12-04T02:37:33.257Z,0.7
2022-12-04T02:38:49.570Z,0.6
2022-12-04T02:40:05.844Z,0.6
2022-12-04T02:41:22.140Z,0.6
2022-12-04T02:42:38.453Z,0.6
2022-12-04T02:43:54.745Z,0.6
2022-12-04T02:45:11.031Z,0.6
2022-12-04T02:46:26.356Z,0.6
2022-12-04T02:47:41.655Z,0.6
2022-12-04T02:48:57.967Z,0.6
2022-12-04T02:50:14.262Z,0.5
2022-12-04T02:52:46.850Z,0.5
2022-12-04T02:54:03.131Z,0.5
2022-12-04T02:55:19.421Z,0.5
2022-12-04T02:56:35.735Z,0.5
2022-12-04T02:57:52.027Z,0.5
2022-12-04T03:00:24.612Z,0.5
2022-12-04T03:01:40.901Z,0.5
2022-12-04T03:02:56.215Z,0.5
2022-12-04T03:04:11.535Z,0.4
2022-12-04T03:05:27.834Z,0.4
2022-12-04T03:08:00.421Z,0.5
2022-12-04T03:09:16.715Z,0.4
2022-12-04T03:10:33.003Z,0.4
2022-12-04T03:11:49.306Z,0.5
2022-12-04T03:13:05.601Z,0.4
2022-12-04T03:15:38.197Z,0.4
2022-12-04T03:16:54.473Z,0.4
2022-12-04T03:18:10.770Z,0.4
2022-12-04T03:19:26.099Z,0.4
2022-12-04T03:20:41.407Z,0.4
2022-12-04T03:21:57.692Z,0.4
2022-12-04T03:23:13.986Z,0.4
2022-12-04T03:24:30.280Z,0.4
2022-12-04T03:25:46.589Z,0.4
2022-12-04T03:27:02.872Z,0.4
2022-12-04T03:28:19.168Z,0.4
2022-12-04T03:29:35.465Z,0.4
2022-12-04T03:30:51.770Z,0.4
2022-12-04T03:32:08.069Z,0.4
2022-12-04T03:34:39.679Z,0.4
2022-12-04T03:35:54.977Z,0.5
2022-12-04T03:37:11.278Z,0.4
2022-12-04T03:38:27.576Z,0.4
2022-12-04T03:39:43.862Z,0.4
2022-12-04T03:41:00.162Z,0.4
2022-12-04T03:42:16.453Z,0.4
2022-12-04T03:43:32.754Z,0.4
2022-12-04T03:44:49.039Z,0.4
2022-12-04T03:46:05.353Z,0.4
2022-12-04T03:47:21.645Z,0.4
2022-12-04T03:48:36.961Z,0.4
2022-12-04T03:49:52.261Z,0.4
2022-12-04T03:51:08.551Z,0.4
2022-12-04T03:52:24.865Z,0.4
2022-12-04T03:53:41.149Z,0.4
2022-12-04T03:54:57.440Z,0.4
2022-12-04T03:56:13.732Z,0.4
2022-12-04T03:57:30.033Z,0.4
2022-12-04T03:58:46.334Z,0.4
2022-12-04T04:00:02.620Z,0.4
2022-12-04T04:01:18.915Z,0.4
2022-12-04T04:02:34.239Z,0.4
2022-12-04T04:03:49.556Z,0.4
2022-12-04T04:05:05.843Z,0.4
2022-12-04T04:06:21.148Z,0.4
2022-12-04T04:08:53.738Z,0.4
2022-12-04T04:10:10.045Z,0.4
2022-12-04T04:11:26.328Z,0.4
2022-12-04T04:12:42.628Z,0.4
2022-12-04T04:13:58.920Z,0.4
2022-12-04T04:15:15.219Z,0.4
2022-12-04T04:16:31.518Z,0.4
2022-12-04T04:17:47.809Z,0.4
2022-12-04T04:19:04.104Z,0.4
2022-12-04T04:20:20.408Z,0.4
2022-12-04T04:21:36.697Z,0.4
2022-12-04T04:22:52.008Z,0.4
2022-12-04T04:24:08.310Z,0.4
2022-12-04T04:25:24.589Z,0.4
2022-12-04T04:26:40.888Z,0.4
2022-12-04T04:27:57.182Z,0.4
2022-12-04T04:29:13.492Z,0.4
2022-12-04T04:30:29.787Z,0.4
2022-12-04T04:31:46.070Z,0.4
2022-12-04T04:33:02.371Z,0.4
2022-12-04T04:34:18.667Z,0.4
2022-12-04T04:35:34.957Z,0.4
2022-12-04T04:36:51.257Z,0.4
2022-12-04T04:38:07.556Z,0.4
2022-12-04T04:39:22.867Z,0.4
2022-12-04T04:40:39.157Z,0.4
2022-12-04T04:41:55.451Z,0.4
2022-12-04T04:43:11.733Z,0.3
2022-12-04T04:44:28.030Z,0.4
2022-12-04T04:45:44.341Z,0.4
2022-12-04T04:47:00.623Z,0.4
2022-12-04T04:48:16.930Z,0.4
2022-12-04T04:49:33.227Z,0.4
2022-12-04T04:50:49.509Z,0.3
2022-12-04T04:52:05.799Z,0.4
2022-12-04T04:53:22.094Z,0.4
2022-12-04T04:54:38.397Z,0.4
2022-12-04T04:55:53.710Z,0.4
2022-12-04T04:57:09.995Z,0.4
2022-12-04T04:58:26.296Z,0.4
2022-12-04T04:59:42.590Z,0.4
2022-12-04T05:02:15.175Z,0.4
2022-12-04T05:03:31.467Z,0.4
2022-12-04T05:04:47.781Z,0.4
2022-12-04T05:06:04.063Z,0.4
2022-12-04T05:07:20.350Z,0.4
2022-12-04T05:08:36.646Z,0.4
2022-12-04T05:09:52.949Z,0.4
2022-12-04T05:11:09.244Z,0.4
2022-12-04T05:12:24.552Z,0.4
2022-12-04T05:13:40.859Z,0.4
2022-12-04T05:14:57.143Z,0.4
2022-12-04T05:16:13.451Z,0.4
2022-12-04T05:17:29.734Z,0.4
2022-12-04T05:18:46.023Z,0.4
2022-12-04T05:20:02.330Z,0.4
2022-12-04T05:21:18.620Z,0.4
2022-12-04T05:22:34.913Z,0.4
2022-12-04T05:23:51.213Z,0.4
2022-12-04T05:25:07.506Z,0.4
2022-12-04T05:26:23.803Z,0.4
2022-12-04T05:27:40.098Z,0.4
2022-12-04T05:28:56.384Z,0.4
2022-12-04T05:30:11.709Z,0.4
2022-12-04T05:31:27.986Z,0.4
2022-12-04T05:32:44.296Z,0.4
2022-12-04T05:34:00.588Z,0.4
2022-12-04T05:35:16.879Z,0.4
2022-12-04T05:36:33.179Z,0.4
2022-12-04T05:37:49.479Z,0.4
2022-12-04T05:39:05.758Z,0.4
2022-12-04T05:40:22.058Z,0.4
2022-12-04T05:41:38.357Z,0.4
2022-12-04T05:42:54.646Z,0.4
2022-12-04T05:44:10.948Z,0.4
2022-12-04T05:45:27.243Z,0.4
2022-12-04T05:46:42.544Z,0.4
2022-12-04T05:47:58.836Z,0.4
2022-12-04T05:49:15.135Z,0.4
2022-12-04T05:50:31.437Z,0.4
2022-12-04T05:51:47.728Z,0.4
2022-12-04T05:54:20.331Z,0.4
2022-12-04T05:55:36.605Z,0.4
2022-12-04T05:56:52.900Z,0.4
2022-12-04T05:58:09.211Z,0.4
2022-12-04T05:59:25.500Z,0.4
2022-12-04T06:00:41.796Z,0.4
2022-12-04T06:03:14.381Z,0.4
2022-12-04T06:04:29.692Z,0.4
2022-12-04T06:05:45.982Z,0.4
2022-12-04T06:07:02.275Z,0.4
2022-12-04T06:08:18.583Z,0.4
2022-12-04T06:09:34.867Z,0.4
2022-12-04T06:10:51.163Z,0.4
2022-12-04T06:12:07.464Z,0.4
2022-12-04T06:13:23.750Z,0.4
2022-12-04T06:14:40.059Z,0.4
2022-12-04T06:15:56.341Z,0.4
2022-12-04T06:17:12.644Z,0.4
2022-12-04T06:19:45.227Z,0.4
2022-12-04T06:21:00.541Z,0.4
2022-12-04T06:22:15.863Z,0.4
2022-12-04T06:23:32.151Z,0.4
2022-12-04T06:24:48.459Z,0.4
2022-12-04T06:26:04.750Z,0.4
2022-12-04T06:27:21.042Z,0.4
2022-12-04T06:28:37.274Z,0.4
2022-12-04T06:29:53.585Z,0.4
2022-12-04T06:31:09.866Z,0.4
2022-12-04T06:33:42.373Z,0.4
2022-12-04T06:34:58.669Z,0.4
2022-12-04T06:36:14.911Z,0.4
2022-12-04T06:37:31.150Z,0.4
2022-12-04T06:38:46.467Z,0.4
2022-12-04T06:41:18.958Z,0.4
2022-12-04T06:42:34.218Z,0.5
2022-12-04T06:45:05.709Z,0.4
2022-12-04T06:46:21.948Z,0.5
2022-12-04T06:47:38.192Z,0.4
2022-12-04T06:48:54.436Z,0.5
2022-12-04T06:50:10.678Z,0.5
2022-12-04T06:51:26.917Z,0.4
2022-12-04T06:52:43.170Z,0.5
2022-12-04T06:53:59.400Z,0.5
2022-12-04T06:55:15.647Z,0.4
2022-12-04T06:56:31.887Z,0.5
2022-12-04T06:57:48.136Z,0.5
2022-12-04T06:59:03.381Z,0.5
2022-12-04T07:00:18.646Z,0.5
2022-12-04T07:01:34.897Z,0.5
2022-12-04T07:02:51.124Z,0.5
2022-12-04T07:04:07.360Z,0.5
2022-12-04T07:05:23.611Z,0.5
2022-12-04T07:06:39.841Z,0.5
2022-12-04T07:07:56.083Z,0.5
2022-12-04T07:09:12.337Z,0.5
2022-12-04T07:10:28.583Z,0.5
2022-12-04T07:11:44.818Z,0.5
2022-12-04T07:13:00.088Z,0.5
2022-12-04T07:14:16.444Z,0.5
2022-12-04T07:15:32.677Z,0.5
2022-12-04T07:16:48.912Z,0.6
2022-12-04T07:18:05.171Z,0.5
2022-12-04T07:19:21.410Z,0.6
2022-12-04T07:20:37.637Z,0.5
2022-12-04T07:23:10.119Z,0.6
2022-12-04T07:24:26.367Z,0.6
2022-12-04T07:25:42.614Z,0.6
2022-12-04T07:26:58.846Z,0.6
2022-12-04T07:28:15.100Z,0.6
2022-12-04T07:29:31.334Z,0.6
2022-12-04T07:30:46.581Z,0.6
2022-12-04T07:32:02.822Z,0.6
2022-12-04T07:33:19.065Z,0.6
2022-12-04T07:34:35.305Z,0.6
2022-12-04T07:35:51.548Z,0.6
2022-12-04T07:37:07.787Z,0.6
2022-12-04T07:38:24.037Z,0.6
2022-12-04T07:39:40.270Z,0.6
2022-12-04T07:40:56.516Z,0.6
2022-12-04T07:42:12.000Z,0.6
2022-12-04T07:43:28.989Z,0.6
2022-12-04T07:44:45.243Z,0.6
2022-12-04T07:46:01.000Z,0.6
2022-12-04T07:48:32.976Z,0.6
2022-12-04T07:49:49.223Z,0.7
2022-12-04T07:51:05.453Z,0.7
2022-12-04T07:52:21.703Z,0.7
2022-12-04T07:53:37.940Z,0.6
2022-12-04T07:54:54.180Z,0.6
2022-12-04T07:57:26.653Z,0.7
2022-12-04T07:59:59.149Z,0.7
2022-12-04T08:01:15.534Z,0.6
2022-12-04T08:02:30.780Z,0.6
2022-12-04T08:03:47.023Z,0.7
2022-12-04T08:05:03.265Z,0.7
2022-12-04T08:06:19.500Z,0.7
2022-12-04T08:07:35.741Z,0.7
2022-12-04T08:08:51.985Z,0.7
2022-12-04T08:10:08.233Z,0.7
2022-12-04T08:11:24.465Z,0.7
2022-12-04T08:12:40.701Z,0.7
2022-12-04T08:13:56.946Z,0.7
2022-12-04T08:15:12.216Z,0.7
2022-12-04T08:16:27.464Z,0.7
2022-12-04T08:17:43.719Z,0.7
2022-12-04T08:20:16.197Z,0.7
2022-12-04T08:21:31.446Z,0.7
2022-12-04T08:22:47.696Z,0.7
2022-12-04T08:24:03.938Z,0.7
2022-12-04T08:27:52.649Z,0.7
2022-12-04T08:29:08.898Z,0.7
2022-12-04T08:30:25.136Z,0.7
2022-12-04T08:31:41.375Z,0.7
2022-12-04T08:32:56.653Z,0.7
2022-12-04T08:35:29.132Z,0.7
2022-12-04T08:36:44.385Z,0.7
2022-12-04T08:38:00.628Z,0.7
2022-12-04T08:39:16.870Z,0.7
2022-12-04T08:40:33.107Z,0.7
2022-12-04T08:43:05.579Z,0.7
2022-12-04T08:44:21.826Z,0.7
2022-12-04T08:45:38.064Z,0.7
2022-12-04T08:46:54.304Z,0.7
2022-12-04T08:48:10.543Z,0.7
2022-12-04T08:49:26.786Z,0.7
2022-12-04T08:50:43.023Z,0.7
2022-12-04T08:51:59.280Z,0.7
2022-12-04T08:53:14.524Z,0.7
2022-12-04T08:54:30.769Z,0.7
2022-12-04T08:55:47.010Z,0.8
2022-12-04T08:58:19.495Z,0.7
2022-12-04T08:59:34.758Z,0.7
2022-12-04T09:00:50.016Z,0.7
2022-12-04T09:02:06.261Z,0.7
2022-12-04T09:05:54.973Z,0.7
2022-12-04T09:07:11.220Z,0.7
2022-12-04T09:08:27.458Z,0.7
2022-12-04T09:09:43.693Z,0.7
2022-12-04T09:10:59.948Z,0.8
2022-12-04T09:13:32.412Z,0.7
2022-12-04T09:14:48.662Z,0.7
2022-12-04T09:17:21.141Z,0.7
2022-12-04T09:18:37.386Z,0.7
2022-12-04T09:21:08.879Z,0.7
2022-12-04T09:22:25.130Z,0.7
2022-12-04T09:23:41.363Z,0.7
2022-12-04T09:26:13.853Z,0.8
2022-12-04T09:27:30.095Z,0.8
2022-12-04T09:30:02.566Z,0.8
2022-12-04T09:31:18.803Z,0.8
2022-12-04T09:32:35.055Z,0.8
2022-12-04T09:33:51.300Z,0.8
2022-12-04T09:35:07.530Z,0.8
2022-12-04T09:36:23.770Z,0.8
2022-12-04T09:37:39.032Z,0.8
2022-12-04T09:38:55.276Z,0.8
2022-12-04T09:40:11.515Z,0.8
2022-12-04T09:41:27.745Z,0.8
2022-12-04T09:44:00.228Z,0.8
2022-12-04T09:45:16.475Z,0.8
2022-12-04T09:46:32.707Z,0.8
2022-12-04T09:47:48.960Z,0.8
2022-12-04T09:49:05.205Z,0.8
2022-12-04T09:50:21.442Z,0.8
2022-12-04T09:51:37.689Z,0.8
2022-12-04T09:52:53.912Z,0.8
2022-12-04T09:55:26.410Z,0.8
2022-12-04T09:56:41.651Z,0.8
2022-12-04T09:57:57.907Z,0.9
2022-12-04T09:59:14.131Z,0.8
2022-12-04T10:00:30.384Z,0.8
2022-12-04T10:01:46.624Z,0.8
2022-12-04T10:03:02.870Z,0.9
2022-12-04T10:04:19.105Z,0.8
2022-12-04T10:05:35.354Z,0.8
2022-12-04T10:06:51.582Z,0.8
2022-12-04T10:08:07.832Z,0.8
2022-12-04T10:09:24.062Z,0.8
2022-12-04T10:10:39.321Z,0.8
2022-12-04T10:11:55.566Z,0.8
2022-12-04T10:14:27.071Z,0.8
2022-12-04T10:16:59.549Z,0.8
2022-12-04T10:18:15.795Z,0.8
2022-12-04T10:19:32.029Z,0.8
2022-12-04T10:22:04.512Z,0.8
2022-12-04T10:23:20.754Z,0.8
2022-12-04T10:24:37.003Z,0.9
2022-12-04T10:25:53.243Z,0.8
2022-12-04T10:27:09.487Z,0.8
2022-12-04T10:29:40.979Z,0.8
2022-12-04T10:30:57.214Z,0.8
2022-12-04T10:32:12.481Z,0.8
2022-12-04T10:33:27.728Z,0.8
2022-12-04T10:34:43.975Z,0.8
2022-12-04T10:36:00.225Z,0.8
2022-12-04T10:37:16.453Z,0.9
2022-12-04T10:38:32.708Z,0.8
2022-12-04T10:39:48.935Z,0.9
2022-12-04T10:41:05.194Z,0.8
2022-12-04T10:42:21.415Z,0.9
2022-12-04T10:43:37.660Z,0.9
2022-12-04T10:46:10.154Z,0.9
2022-12-04T10:47:26.385Z,0.9
2022-12-04T10:48:42.625Z,0.9
2022-12-04T10:49:57.890Z,0.9
2022-12-04T10:52:30.372Z,1
2022-12-04T10:53:46.613Z,1
2022-12-04T10:55:02.858Z,1
2022-12-04T10:56:19.087Z,1
2022-12-04T10:58:51.582Z,1
2022-12-04T11:00:07.814Z,1
2022-12-04T11:01:24.059Z,1
2022-12-04T11:02:40.301Z,1
2022-12-04T11:03:56.545Z,1
2022-12-04T11:05:12.782Z,1
2022-12-04T11:07:45.263Z,1
2022-12-04T11:09:01.497Z,1
2022-12-04T11:10:16.764Z,1
2022-12-04T11:11:33.002Z,1
2022-12-04T11:12:49.241Z,1
2022-12-04T11:15:21.722Z,1
2022-12-04T11:16:37.960Z,1
2022-12-04T11:17:54.198Z,1
2022-12-04T11:19:10.434Z,1.1
2022-12-04T11:20:26.675Z,1.1
2022-12-04T11:24:15.397Z,1.1
2022-12-04T11:25:31.651Z,1.2
2022-12-04T11:26:46.902Z,1.1
2022-12-04T11:28:03.148Z,1.2
2022-12-04T11:30:35.628Z,1.1
2022-12-04T11:31:51.872Z,1.1
2022-12-04T11:33:08.100Z,1.1
2022-12-04T11:34:24.353Z,1.1
2022-12-04T11:35:40.593Z,1.1
2022-12-04T11:38:13.073Z,1.1
2022-12-04T11:39:29.309Z,1.1
2022-12-04T11:40:45.548Z,1.1
2022-12-04T11:42:01.797Z,1.1
2022-12-04T11:43:17.048Z,1.1
2022-12-04T11:45:49.528Z,1.1
2022-12-04T11:47:05.772Z,1.1
2022-12-04T11:49:38.250Z,1.1
2022-12-04T11:50:54.500Z,1.1
2022-12-04T11:52:10.739Z,1.1
2022-12-04T11:53:26.980Z,1.1
2022-12-04T11:54:43.225Z,1.1
2022-12-04T11:55:59.456Z,1.1
2022-12-04T11:57:15.707Z,1.1
2022-12-04T11:58:31.932Z,1.1
2022-12-04T11:59:48.294Z,1.1
2022-12-04T12:02:20.779Z,1.1
2022-12-04T12:03:37.020Z,1.1
2022-12-04T12:04:53.273Z,1.1
2022-12-04T12:06:09.515Z,1.1
2022-12-04T12:07:25.744Z,1.1
2022-12-04T12:08:41.978Z,1.1
2022-12-04T12:09:58.225Z,1.1
2022-12-04T12:11:14.478Z,1.1
2022-12-04T12:12:30.700Z,1.1
2022-12-04T12:13:46.952Z,1.1
2022-12-04T12:15:03.202Z,1.1
2022-12-04T12:16:18.463Z,1.1
2022-12-04T12:17:33.705Z,1.1
2022-12-04T12:18:49.943Z,1.1
2022-12-04T12:20:06.195Z,1.2
2022-12-04T12:21:22.429Z,1.1
2022-12-04T12:22:38.685Z,1.2
2022-12-04T12:23:54.914Z,1.2
2022-12-04T12:25:11.147Z,1.2
2022-12-04T12:26:27.403Z,1.2
2022-12-04T12:27:43.631Z,1.2
2022-12-04T12:28:59.871Z,1.2
2022-12-04T12:30:15.142Z,1.2
2022-12-04T12:31:30.398Z,1.2
2022-12-04T12:32:46.638Z,1.2
2022-12-04T12:34:02.882Z,1.2
2022-12-04T12:35:19.125Z,1.2
2022-12-04T12:36:34.374Z,1.2
2022-12-04T12:37:50.626Z,1.2
2022-12-04T12:40:23.115Z,1.2
2022-12-04T12:41:39.345Z,1.3
2022-12-04T12:42:55.584Z,1.3
2022-12-04T12:44:11.818Z,1.2
2022-12-04T12:46:44.315Z,1.2
2022-12-04T12:48:00.555Z,1.2
2022-12-04T12:49:15.822Z,1.2
2022-12-04T12:50:32.061Z,1.2
2022-12-04T12:51:47.319Z,1.2
2022-12-04T12:53:03.556Z,1.2
2022-12-04T12:54:19.795Z,1.2
2022-12-04T12:55:36.031Z,1.2
2022-12-04T12:56:52.000Z,1.2
2022-12-04T12:58:08.515Z,1.2
2022-12-04T12:59:24.760Z,1.2
2022-12-04T13:00:40.987Z,1.2
2022-12-04T13:01:57.232Z,1.2
2022-12-04T13:03:12.502Z,1.3
2022-12-04T13:04:27.753Z,1.3
2022-12-04T13:05:43.992Z,1.2
2022-12-04T13:07:00.244Z,1.2
2022-12-04T13:08:16.486Z,1.2
2022-12-04T13:09:32.716Z,1.2
2022-12-04T13:10:48.963Z,1.2
2022-12-04T13:12:05.197Z,1.2
2022-12-04T13:13:21.444Z,1.2
2022-12-04T13:14:37.681Z,1.2
2022-12-04T13:15:53.919Z,1.2
2022-12-04T13:18:26.403Z,1.2
2022-12-04T13:19:42.643Z,1.2
2022-12-04T13:20:57.903Z,1.2
2022-12-04T13:22:14.149Z,1.2
2022-12-04T13:24:46.637Z,1.2
2022-12-04T13:26:02.858Z,1.3
2022-12-04T13:27:18.136Z,1.2
2022-12-04T13:28:34.370Z,1.2
2022-12-04T13:29:49.630Z,1.2
2022-12-04T13:32:22.115Z,1.2
2022-12-04T13:34:54.596Z,1.2
2022-12-04T13:36:10.840Z,1.2
2022-12-04T13:37:27.070Z,1.2
2022-12-04T13:39:59.547Z,1.2
2022-12-04T13:41:15.792Z,1.2
2022-12-04T13:42:32.048Z,1.2
2022-12-04T13:43:48.275Z,1.2
2022-12-04T13:45:03.540Z,1.2
2022-12-04T13:47:35.033Z,1.2
2022-12-04T13:48:51.277Z,1.1
2022-12-04T13:50:07.523Z,1.2
2022-12-04T13:51:23.763Z,1.1
2022-12-04T13:52:39.996Z,1.2
2022-12-04T13:55:12.476Z,1.1
2022-12-04T13:56:28.718Z,1.1
2022-12-04T13:57:44.958Z,1.1
2022-12-04T14:00:17.446Z,1.1
2022-12-04T14:02:49.926Z,1.1
2022-12-04T14:04:05.191Z,1.1
2022-12-04T14:05:21.423Z,1.2
2022-12-04T14:06:37.677Z,1.2
2022-12-04T14:07:53.909Z,1.1
2022-12-04T14:10:26.383Z,1.1
2022-12-04T14:11:42.632Z,1.2
2022-12-04T14:12:58.867Z,1.2
2022-12-04T14:14:15.115Z,1.1
2022-12-04T14:15:31.354Z,1.2
2022-12-04T14:18:03.829Z,1.1
2022-12-04T14:19:20.066Z,1.2
2022-12-04T14:20:36.320Z,1.1
2022-12-04T14:21:52.558Z,1.2
2022-12-04T14:23:07.812Z,1.2
2022-12-04T14:25:40.306Z,1.2
2022-12-04T14:28:12.777Z,1.1
2022-12-04T14:29:29.019Z,1.1
2022-12-04T14:30:45.270Z,1.1
2022-12-04T14:33:17.746Z,1.1
2022-12-04T14:34:33.982Z,1.2
2022-12-04T14:35:50.216Z,1.1
2022-12-04T14:38:22.708Z,1.1
2022-12-04T14:40:54.208Z,1.2
2022-12-04T14:42:10.449Z,1.2
2022-12-04T14:43:26.680Z,1.2
2022-12-04T14:44:42.926Z,1.2
2022-12-04T14:45:59.175Z,1.2
2022-12-04T14:47:15.405Z,1.2
2022-12-04T14:48:31.639Z,1.2
2022-12-04T14:49:47.892Z,1.2
2022-12-04T14:51:04.120Z,1.2
2022-12-04T14:52:20.377Z,1.2
2022-12-04T14:53:36.615Z,1.2
2022-12-04T14:54:52.854Z,1.2
2022-12-04T14:56:09.097Z,1.2
2022-12-04T14:57:24.341Z,1.2
2022-12-04T14:58:40.601Z,1.2
2022-12-04T14:59:56.831Z,1.2
2022-12-04T15:01:13.068Z,1.2
2022-12-04T15:02:29.316Z,1.2
2022-12-04T15:03:45.559Z,1.2
2022-12-04T15:05:01.789Z,1.2
2022-12-04T15:06:17.067Z,1.2
2022-12-04T15:07:32.322Z,1.2
2022-12-04T15:08:48.556Z,1.2
2022-12-04T15:11:21.041Z,1.2
2022-12-04T15:12:37.273Z,1.3
2022-12-04T15:13:53.527Z,1.3
2022-12-04T15:15:09.751Z,1.3
2022-12-04T15:16:25.996Z,1.3
2022-12-04T15:17:42.237Z,1.3
2022-12-04T15:18:58.489Z,1.3
2022-12-04T15:20:14.731Z,1.3
2022-12-04T15:21:30.971Z,1.3
2022-12-04T15:22:47.205Z,1.3
2022-12-04T15:24:02.474Z,1.3
2022-12-04T15:26:34.953Z,1.3
2022-12-04T15:27:51.331Z,1.3
2022-12-04T15:29:06.590Z,1.3
2022-12-04T15:30:22.828Z,1.4
2022-12-04T15:31:39.059Z,1.3
2022-12-04T15:34:11.661Z,1.4
2022-12-04T15:35:27.955Z,1.4
2022-12-04T15:36:44.251Z,1.4
2022-12-04T15:38:00.543Z,1.3
2022-12-04T15:39:16.828Z,1.3
2022-12-04T15:41:49.420Z,1.3
2022-12-04T15:43:05.723Z,1.4
2022-12-04T15:44:22.026Z,1.3
2022-12-04T15:45:37.338Z,1.3
2022-12-04T15:46:53.629Z,1.4
2022-12-04T15:48:09.910Z,1.3
2022-12-04T15:49:26.217Z,1.4
2022-12-04T15:50:42.499Z,1.3
2022-12-04T15:51:58.804Z,1.4
2022-12-04T15:53:15.100Z,1.4
2022-12-04T15:54:31.383Z,1.3
2022-12-04T15:55:47.672Z,1.4
2022-12-04T15:57:03.970Z,1.4
2022-12-04T15:58:20.281Z,1.4
2022-12-04T15:59:36.575Z,1.4
2022-12-04T16:00:51.874Z,1.4
2022-12-04T16:02:07.199Z,1.4
2022-12-04T16:04:39.792Z,1.4
2022-12-04T16:05:56.075Z,1.4
2022-12-04T16:07:12.383Z,1.4
2022-12-04T16:08:28.673Z,1.4
2022-12-04T16:09:44.963Z,1.4
2022-12-04T16:12:17.553Z,1.4
2022-12-04T16:13:33.846Z,1.4
2022-12-04T16:14:50.147Z,1.4
2022-12-04T16:16:06.443Z,1.4
2022-12-04T16:17:21.757Z,1.4
2022-12-04T16:18:37.066Z,1.4
2022-12-04T16:19:53.370Z,1.4
2022-12-04T16:21:09.656Z,1.4
2022-12-04T16:22:25.947Z,1.4
2022-12-04T16:23:42.234Z,1.5
2022-12-04T16:24:58.544Z,1.4
2022-12-04T16:26:14.829Z,1.5
2022-12-04T16:27:31.139Z,1.5
2022-12-04T16:28:47.432Z,1.5
2022-12-04T16:30:03.725Z,1.5
2022-12-04T16:31:19.027Z,1.5
2022-12-04T16:32:34.351Z,1.5
2022-12-04T16:35:06.946Z,1.5
2022-12-04T16:36:23.239Z,1.5
2022-12-04T16:37:39.530Z,1.5
2022-12-04T16:38:55.830Z,1.5
2022-12-04T16:40:12.111Z,1.5
2022-12-04T16:41:28.417Z,1.5
2022-12-04T16:42:44.709Z,1.6
2022-12-04T16:44:01.004Z,1.6
2022-12-04T16:45:17.289Z,1.6
2022-12-04T16:46:33.590Z,1.6
2022-12-04T16:47:49.891Z,1.6
2022-12-04T16:49:05.199Z,1.6
2022-12-04T16:50:21.494Z,1.6
2022-12-04T16:51:36.808Z,1.6
2022-12-04T16:52:53.113Z,1.6
2022-12-04T16:54:09.392Z,1.6
2022-12-04T16:55:25.700Z,1.6
2022-12-04T16:57:58.282Z,1.7
2022-12-04T16:59:14.580Z,1.6
2022-12-04T17:00:30.883Z,1.7
2022-12-04T17:01:46.182Z,1.7
2022-12-04T17:03:01.489Z,1.7
2022-12-04T17:05:34.088Z,1.7
2022-12-04T17:06:50.376Z,1.7
2022-12-04T17:08:06.680Z,1.7
2022-12-04T17:09:22.976Z,1.7
2022-12-04T17:10:39.276Z,1.7
2022-12-04T17:13:11.859Z,1.8
2022-12-04T17:14:28.151Z,1.8
2022-12-04T17:15:44.441Z,1.8
2022-12-04T17:17:00.748Z,1.8
2022-12-04T17:18:16.050Z,1.8
2022-12-04T17:20:47.660Z,1.8
2022-12-04T17:22:03.965Z,1.8
2022-12-04T17:23:20.262Z,1.8
2022-12-04T17:24:36.560Z,1.8
2022-12-04T17:25:52.846Z,1.8
2022-12-04T17:28:25.440Z,1.8
2022-12-04T17:29:41.730Z,1.8
2022-12-04T17:30:58.033Z,1.8
2022-12-04T17:32:14.325Z,1.8
2022-12-04T17:33:30.605Z,1.8
2022-12-04T17:34:46.902Z,1.9
2022-12-04T17:36:03.328Z,1.9
2022-12-04T17:37:19.618Z,1.9
2022-12-04T17:38:35.910Z,1.9
2022-12-04T17:39:52.221Z,1.8
2022-12-04T17:41:08.516Z,1.8
2022-12-04T17:42:24.801Z,1.9
2022-12-04T17:43:41.094Z,1.9
2022-12-04T17:44:57.397Z,1.9
2022-12-04T17:46:13.683Z,1.9
2022-12-04T17:47:29.008Z,1.9
2022-12-04T17:48:44.312Z,1.9
2022-12-04T17:51:16.910Z,1.9
2022-12-04T17:52:33.209Z,1.9
2022-12-04T17:53:49.487Z,1.9
2022-12-04T17:55:05.793Z,1.9
2022-12-04T17:56:22.082Z,1.9
2022-12-04T17:57:38.371Z,1.9
2022-12-04T17:58:54.669Z,1.9
2022-12-04T18:00:10.963Z,1.9
2022-12-04T18:01:27.260Z,2
2022-12-04T18:02:43.549Z,2
2022-12-04T18:03:59.844Z,2
2022-12-04T18:05:15.169Z,1.9
2022-12-04T18:06:31.450Z,2
2022-12-04T18:07:47.754Z,1.9
2022-12-04T18:09:04.060Z,2
2022-12-04T18:10:20.340Z,2
2022-12-04T18:11:36.637Z,2
2022-12-04T18:12:52.937Z,2
2022-12-04T18:14:09.227Z,2
2022-12-04T18:16:41.826Z,2
2022-12-04T18:17:58.110Z,2
2022-12-04T18:19:14.400Z,2
2022-12-04T18:21:47.005Z,2
2022-12-04T18:23:02.305Z,2
2022-12-04T18:24:18.603Z,2
2022-12-04T18:25:34.893Z,2.1
2022-12-04T18:26:51.186Z,2
2022-12-04T18:29:23.790Z,2
2022-12-04T18:30:39.105Z,2
2022-12-04T18:31:55.387Z,2
2022-12-04T18:33:10.702Z,2
2022-12-04T18:34:26.992Z,2.1
2022-12-04T18:35:43.290Z,2.1
2022-12-04T18:36:59.581Z,2.1
2022-12-04T18:38:15.873Z,2.1
2022-12-04T18:39:32.174Z,2.1
2022-12-04T18:40:48.462Z,2.1
2022-12-04T18:42:04.772Z,2.1
2022-12-04T18:43:21.069Z,2.1
2022-12-04T18:44:36.383Z,2.1
2022-12-04T18:45:51.693Z,2.1
2022-12-04T18:47:07.981Z,2.1
2022-12-04T18:48:24.289Z,2.2
2022-12-04T18:49:40.584Z,2.2
2022-12-04T18:52:13.152Z,2.1
2022-12-04T18:53:29.460Z,2.1
2022-12-04T18:54:45.744Z,2.2
2022-12-04T18:56:02.055Z,2.2
2022-12-04T18:57:18.348Z,2.2
2022-12-04T18:58:34.644Z,2.1
2022-12-04T19:01:07.225Z,2.2
2022-12-04T19:02:22.543Z,2.2
2022-12-04T19:03:37.852Z,2.2
2022-12-04T19:04:54.144Z,2.2
2022-12-04T19:06:10.438Z,2.2
2022-12-04T19:07:26.732Z,2.2
2022-12-04T19:08:43.038Z,2.2
2022-12-04T19:09:59.325Z,2.2
2022-12-04T19:12:31.915Z,2.3
2022-12-04T19:15:04.504Z,2.2
2022-12-04T19:16:20.807Z,2.2
2022-12-04T19:17:37.090Z,2.2
2022-12-04T19:18:52.420Z,2.2
2022-12-04T19:20:07.727Z,2.2
2022-12-04T19:21:24.012Z,2.2
2022-12-04T19:22:40.308Z,2.3
2022-12-04T19:23:56.603Z,2.3
2022-12-04T19:25:12.902Z,2.3
2022-12-04T19:26:29.188Z,2.3
2022-12-04T19:27:45.500Z,2.3